ESGT/THN METAR and TAF weather

Enter ICAO airport designator
Station Type Date Time Source
ESGT METAR 2019/10/18 05:50 UTC NOAA

ESGT 180550Z 17008KT 140V200 5000 OVC004 09/08 Q1008


Station Type Date Time Source
ESGT Decoded METAR 2019/10/18 05:50 UTC NOAA

Trollhattan Private , Sweden (ESGT) 58-19N 012-21E
Oct 18, 2019 - 01:50 AM EDT / 2019.10.18 0550 UTC
Wind: from the S (170 degrees) at 9 MPH (8 KT) (direction variable):0
Visibility: 3 mile(s):0
Sky conditions: overcast
Temperature: 48 F (9 C)
Dew Point: 46 F (8 C)
Relative Humidity: 93%
Pressure (altimeter): 29.77 in. Hg (1008 hPa)
ob: ESGT 180550Z 17008KT 140V200 5000 OVC004 09/08 Q1008
cycle: 6

Station Type Date Time Source
ESGT TAF 2016/08/12 05:58 UTC NOAA

TAF ESGT 120430Z 1205/1224 18007KT 9999 FEW030

Example: see airport list